createdAt,value
2022-11-27T00:01:19.007Z,1.50
2022-11-27T00:03:51.942Z,1.35
2022-11-27T00:06:26.012Z,1.60
2022-11-27T00:08:53.561Z,1.42
2022-11-27T00:11:22.308Z,1.58
2022-11-27T00:13:52.468Z,1.35
2022-11-27T00:16:20.446Z,1.80
2022-11-27T00:18:51.138Z,1.20
2022-11-27T00:21:28.349Z,1.40
2022-11-27T00:24:08.205Z,1.10
2022-11-27T00:26:38.128Z,1.52
2022-11-27T00:29:09.407Z,1.23
2022-11-27T00:31:40.006Z,1.50
2022-11-27T00:34:13.281Z,1.42
2022-11-27T00:36:47.872Z,1.20
2022-11-27T00:39:21.589Z,1.60
2022-11-27T00:41:50.908Z,1.33
2022-11-27T00:44:18.041Z,1.23
2022-11-27T00:46:51.418Z,1.35
2022-11-27T00:49:24.573Z,1.50
2022-11-27T00:51:54.955Z,1.60
2022-11-27T00:54:24.810Z,1.40
2022-11-27T00:56:57.761Z,1.10
2022-11-27T00:59:31.254Z,1.10
2022-11-27T01:01:58.320Z,1.20
2022-11-27T01:04:28.723Z,1.50
2022-11-27T01:06:58.259Z,1.48
2022-11-27T01:09:25.344Z,1.50
2022-11-27T01:11:52.252Z,1.40
2022-11-27T01:14:22.333Z,1.23
2022-11-27T01:16:53.001Z,1.88
2022-11-27T01:19:23.299Z,1.77
2022-11-27T01:21:53.211Z,1.90
2022-11-27T01:24:20.360Z,1.65
2022-11-27T01:26:53.641Z,1.67
2022-11-27T01:29:20.779Z,1.88
2022-11-27T01:31:48.253Z,1.80
2022-11-27T01:34:16.737Z,2.20
2022-11-27T01:36:47.214Z,2.10
2022-11-27T01:39:19.168Z,1.90
2022-11-27T01:41:48.099Z,1.95
2022-11-27T01:44:24.572Z,1.70
2022-11-27T01:47:01.012Z,1.50
2022-11-27T01:49:49.091Z,1.95
2022-11-27T01:52:21.508Z,1.90
2022-11-27T01:54:54.995Z,1.70
2022-11-27T01:57:30.189Z,1.70
2022-11-27T01:59:58.327Z,2.10
2022-11-27T02:02:29.184Z,1.90
2022-11-27T02:05:05.732Z,1.83
2022-11-27T02:07:39.009Z,1.50
2022-11-27T02:10:12.064Z,2.20
2022-11-27T02:12:51.732Z,2.17
2022-11-27T02:15:27.092Z,1.70
2022-11-27T02:17:54.166Z,2.00
2022-11-27T02:20:42.378Z,1.70
2022-11-27T02:23:47.329Z,2.05
2022-11-27T02:26:32.683Z,2.00
2022-11-27T02:29:14.227Z,2.03
2022-11-27T02:31:47.186Z,1.83
2022-11-27T02:34:26.652Z,1.85
2022-11-27T02:40:16.128Z,1.92
2022-11-27T02:42:48.896Z,2.20
2022-11-27T02:45:22.898Z,1.85
2022-11-27T02:47:55.191Z,1.80
2022-11-27T02:50:25.842Z,2.05
2022-11-27T02:52:58.653Z,1.58
2022-11-27T02:55:30.261Z,1.73
2022-11-27T02:57:57.804Z,1.90
2022-11-27T03:00:25.041Z,1.65
2022-11-27T03:03:01.678Z,1.48
2022-11-27T03:05:31.188Z,1.52
2022-11-27T03:08:24.089Z,1.60
2022-11-27T03:10:57.813Z,1.15
2022-11-27T03:13:25.785Z,1.83
2022-11-27T03:15:55.374Z,1.60
2022-11-27T03:18:31.280Z,1.98
2022-11-27T03:21:20.803Z,1.75
2022-11-27T03:23:53.981Z,1.60
2022-11-27T03:26:21.085Z,1.67
2022-11-27T03:28:51.344Z,1.63
2022-11-27T03:31:24.079Z,2.13
2022-11-27T03:33:54.262Z,2.00
2022-11-27T03:36:22.855Z,1.60
2022-11-27T03:38:53.228Z,1.80
2022-11-27T03:41:38.458Z,1.95
2022-11-27T03:44:23.884Z,1.77
2022-11-27T03:47:03.325Z,2.08
2022-11-27T03:49:57.049Z,1.90
2022-11-27T03:52:33.009Z,1.45
2022-11-27T03:55:05.944Z,2.00
2022-11-27T03:57:42.576Z,1.85
2022-11-27T04:00:10.642Z,1.65
2022-11-27T04:02:42.748Z,1.77
2022-11-27T04:05:10.297Z,1.33
2022-11-27T04:07:40.878Z,1.20
2022-11-27T04:10:08.485Z,1.70
2022-11-27T04:15:26.322Z,1.70
2022-11-27T04:17:53.469Z,1.80
2022-11-27T04:20:20.441Z,2.00
2022-11-27T04:22:54.025Z,1.90
2022-11-27T04:25:22.309Z,2.03
2022-11-27T04:27:52.117Z,1.50
2022-11-27T04:30:22.135Z,1.60
2022-11-27T04:32:52.562Z,1.70
2022-11-27T04:35:22.976Z,1.73
2022-11-27T04:37:52.170Z,1.88
2022-11-27T04:40:23.171Z,1.90
2022-11-27T04:42:53.164Z,2.08
2022-11-27T04:45:20.443Z,2.05
2022-11-27T04:47:52.946Z,1.90
2022-11-27T04:50:26.608Z,1.95
2022-11-27T04:52:57.456Z,2.08
2022-11-27T04:58:16.262Z,2.05
2022-11-27T05:00:46.374Z,1.67
2022-11-27T05:03:17.223Z,1.90
2022-11-27T05:05:48.167Z,1.90
2022-11-27T05:08:17.922Z,2.00
2022-11-27T05:10:47.101Z,2.28
2022-11-27T05:13:20.203Z,2.30
2022-11-27T05:15:50.384Z,1.90
2022-11-27T05:18:17.572Z,2.05
2022-11-27T05:20:53.287Z,1.60
2022-11-27T05:23:25.884Z,1.77
2022-11-27T05:25:56.169Z,1.83
2022-11-27T05:28:26.811Z,2.10
2022-11-27T05:31:00.736Z,2.00
2022-11-27T05:33:31.015Z,1.52
2022-11-27T05:36:04.149Z,1.70
2022-11-27T05:38:31.130Z,1.80
2022-11-27T05:40:58.256Z,1.63
2022-11-27T05:43:27.800Z,1.70
2022-11-27T05:45:55.331Z,1.65
2022-11-27T05:48:25.170Z,1.63
2022-11-27T05:50:57.665Z,2.00
2022-11-27T05:53:25.569Z,1.55
2022-11-27T05:55:52.517Z,1.83
2022-11-27T05:58:25.129Z,1.73
2022-11-27T06:00:55.110Z,2.00
2022-11-27T06:03:22.337Z,2.08
2022-11-27T06:05:52.763Z,1.80
2022-11-27T06:08:23.326Z,2.08
2022-11-27T06:10:50.852Z,2.25
2022-11-27T06:13:18.541Z,1.88
2022-11-27T06:15:48.869Z,1.70
2022-11-27T06:18:20.141Z,2.08
2022-11-27T06:20:53.126Z,1.65
2022-11-27T06:23:23.533Z,2.28
2022-11-27T06:25:55.200Z,2.17
2022-11-27T06:28:24.851Z,2.03
2022-11-27T06:30:54.977Z,1.70
2022-11-27T06:33:24.281Z,2.20
2022-11-27T06:35:54.743Z,1.90
2022-11-27T06:38:27.622Z,2.40
2022-11-27T06:40:58.329Z,1.92
2022-11-27T06:43:25.284Z,2.00
2022-11-27T06:45:59.808Z,2.10
2022-11-27T06:48:26.971Z,1.75
2022-11-27T06:50:57.141Z,1.50
2022-11-27T06:53:25.966Z,2.35
2022-11-27T06:55:56.528Z,2.60
2022-11-27T06:58:30.898Z,2.03
2022-11-27T07:01:03.683Z,2.20
2022-11-27T07:03:34.025Z,2.03
2022-11-27T07:06:05.447Z,1.75
2022-11-27T07:08:38.620Z,2.42
2022-11-27T07:11:12.845Z,2.25
2022-11-27T07:13:43.010Z,1.95
2022-11-27T07:16:13.463Z,1.77
2022-11-27T07:18:42.252Z,2.20
2022-11-27T07:21:12.941Z,1.58
2022-11-27T07:23:42.803Z,2.30
2022-11-27T07:26:16.603Z,1.90
2022-11-27T07:28:46.818Z,2.10
2022-11-27T07:31:24.865Z,2.05
2022-11-27T07:33:55.647Z,1.85
2022-11-27T07:36:27.657Z,2.10
2022-11-27T07:38:57.420Z,1.60
2022-11-27T07:41:30.572Z,2.25
2022-11-27T07:44:00.783Z,2.47
2022-11-27T07:46:27.881Z,2.00
2022-11-27T07:49:03.251Z,2.33
2022-11-27T07:54:26.528Z,2.38
2022-11-27T07:57:10.787Z,2.38
2022-11-27T07:59:43.022Z,2.33
2022-11-27T08:02:17.662Z,2.70
2022-11-27T08:04:47.799Z,2.20
2022-11-27T08:07:18.417Z,2.40
2022-11-27T08:09:45.489Z,2.20
2022-11-27T08:12:16.178Z,1.70
2022-11-27T08:14:46.453Z,2.22
2022-11-27T08:17:16.336Z,2.30
2022-11-27T08:19:52.703Z,2.63
2022-11-27T08:22:22.737Z,2.25
2022-11-27T08:24:51.101Z,2.38
2022-11-27T08:27:23.339Z,2.17
2022-11-27T08:29:56.785Z,1.88
2022-11-27T08:32:23.875Z,2.03
2022-11-27T08:34:56.775Z,2.33
2022-11-27T08:37:25.385Z,2.00
2022-11-27T08:40:00.860Z,3.10
2022-11-27T08:42:30.468Z,2.40
2022-11-27T08:44:57.538Z,2.63
2022-11-27T08:47:24.464Z,2.85
2022-11-27T08:49:55.177Z,2.17
2022-11-27T08:52:25.573Z,2.25
2022-11-27T08:54:57.547Z,1.30
2022-11-27T08:57:25.013Z,1.95
2022-11-27T08:59:52.139Z,2.38
2022-11-27T09:02:21.929Z,2.45
2022-11-27T09:04:48.844Z,2.40
2022-11-27T09:07:16.168Z,2.13
2022-11-27T09:09:48.254Z,1.73
2022-11-27T09:12:18.619Z,2.28
2022-11-27T09:14:52.932Z,2.10
2022-11-27T09:17:20.011Z,2.53
2022-11-27T09:19:50.829Z,2.10
2022-11-27T09:22:19.543Z,2.20
2022-11-27T09:24:49.615Z,2.67
2022-11-27T09:27:20.007Z,2.70
2022-11-27T09:29:50.557Z,2.13
2022-11-27T09:32:17.699Z,2.50
2022-11-27T09:34:45.033Z,2.38
2022-11-27T09:37:18.207Z,2.25
2022-11-27T09:39:48.802Z,2.97
2022-11-27T09:42:31.423Z,2.33
2022-11-27T09:45:00.224Z,1.38
2022-11-27T09:47:42.382Z,2.50
2022-11-27T09:50:26.551Z,1.85
2022-11-27T09:53:14.931Z,2.33
2022-11-27T09:55:44.226Z,2.30
2022-11-27T09:58:17.531Z,2.70
2022-11-27T10:00:47.763Z,2.63
2022-11-27T10:03:26.159Z,2.35
2022-11-27T10:06:23.655Z,2.13
2022-11-27T10:08:52.196Z,2.15
2022-11-27T10:11:19.171Z,2.55
2022-11-27T10:13:59.986Z,2.20
2022-11-27T10:16:35.626Z,2.00
2022-11-27T10:19:15.019Z,1.05
2022-11-27T10:22:09.889Z,2.33
2022-11-27T10:24:39.900Z,1.92
2022-11-27T10:27:25.941Z,1.98
2022-11-27T10:29:56.482Z,1.80
2022-11-27T10:32:54.559Z,2.67
2022-11-27T10:35:31.079Z,2.20
2022-11-27T10:38:20.277Z,2.60
2022-11-27T10:41:02.452Z,2.58
2022-11-27T10:43:30.264Z,1.67
2022-11-27T10:46:00.371Z,2.15
2022-11-27T10:48:29.928Z,2.30
2022-11-27T10:50:57.420Z,2.28
2022-11-27T10:53:54.618Z,1.98
2022-11-27T10:56:24.529Z,3.00
2022-11-27T10:59:00.346Z,2.78
2022-11-27T11:01:35.781Z,2.28
2022-11-27T11:04:36.368Z,2.67
2022-11-27T11:07:03.307Z,3.08
2022-11-27T11:09:31.780Z,2.53
2022-11-27T11:12:18.833Z,2.53
2022-11-27T11:14:52.396Z,2.72
2022-11-27T11:17:25.152Z,1.92
2022-11-27T11:19:55.189Z,1.92
2022-11-27T11:22:22.980Z,1.95
2022-11-27T11:24:55.108Z,2.90
2022-11-27T11:27:28.155Z,1.95
2022-11-27T11:30:00.387Z,1.45
2022-11-27T11:32:33.236Z,2.58
2022-11-27T11:35:03.416Z,2.25
2022-11-27T11:37:38.145Z,1.90
2022-11-27T11:40:10.813Z,2.90
2022-11-27T11:43:01.741Z,1.38
2022-11-27T11:45:35.476Z,2.10
2022-11-27T11:48:22.627Z,2.88
2022-11-27T11:50:56.236Z,2.30
2022-11-27T11:53:23.353Z,2.40
2022-11-27T11:56:00.570Z,1.13
2022-11-27T11:58:27.788Z,2.65
2022-11-27T12:01:26.118Z,2.13
2022-11-27T12:04:12.993Z,2.42
2022-11-27T12:06:43.830Z,1.42
2022-11-27T12:09:26.699Z,2.33
2022-11-27T12:12:01.182Z,2.88
2022-11-27T12:14:29.294Z,3.13
2022-11-27T12:17:04.322Z,2.13
2022-11-27T12:19:56.106Z,2.53
2022-11-27T12:22:26.654Z,1.67
2022-11-27T12:25:17.994Z,2.05
2022-11-27T12:27:57.739Z,3.20
2022-11-27T12:30:28.260Z,1.85
2022-11-27T12:33:28.869Z,2.55
2022-11-27T12:36:01.998Z,2.38
2022-11-27T12:38:49.429Z,2.42
2022-11-27T12:41:19.869Z,2.65
2022-11-27T12:43:56.550Z,2.92
2022-11-27T12:46:27.022Z,2.95
2022-11-27T12:48:58.575Z,2.80
2022-11-27T12:51:35.828Z,2.67
2022-11-27T12:54:15.277Z,0.85
2022-11-27T12:56:48.937Z,2.65
2022-11-27T12:59:37.576Z,2.92
2022-11-27T13:02:24.936Z,2.78
2022-11-27T13:05:06.103Z,2.85
2022-11-27T13:07:49.883Z,2.88
2022-11-27T13:10:23.282Z,2.38
2022-11-27T13:12:57.595Z,2.53
2022-11-27T13:16:13.837Z,3.58
2022-11-27T13:19:01.612Z,2.50
2022-11-27T13:21:33.670Z,1.45
2022-11-27T13:24:04.502Z,2.60
2022-11-27T13:26:45.034Z,3.85
2022-11-27T13:29:14.998Z,3.72
2022-11-27T13:31:49.151Z,4.43
2022-11-27T13:34:35.492Z,3.63
2022-11-27T13:37:08.590Z,3.35
2022-11-27T13:39:41.345Z,3.50
2022-11-27T13:42:23.544Z,3.00
2022-11-27T13:44:55.705Z,2.88
2022-11-27T13:47:25.296Z,2.42
2022-11-27T13:49:59.859Z,3.80
2022-11-27T13:52:27.010Z,2.90
2022-11-27T13:55:02.094Z,2.90
2022-11-27T13:57:34.695Z,3.30
2022-11-27T14:00:14.101Z,2.80
2022-11-27T14:02:42.708Z,2.10
2022-11-27T14:05:19.054Z,2.17
2022-11-27T14:07:49.981Z,2.67
2022-11-27T14:10:25.831Z,2.40
2022-11-27T14:13:13.987Z,2.58
2022-11-27T14:15:42.972Z,2.67
2022-11-27T14:18:23.474Z,2.58
2022-11-27T14:20:54.740Z,2.45
2022-11-27T14:23:48.742Z,1.40
2022-11-27T14:26:16.297Z,3.00
2022-11-27T14:28:48.888Z,2.53
2022-11-27T14:31:26.368Z,2.35
2022-11-27T14:36:52.977Z,2.80
2022-11-27T14:39:30.069Z,1.52
2022-11-27T14:42:04.666Z,2.42
2022-11-27T14:44:35.377Z,2.00
2022-11-27T14:49:58.461Z,2.08
2022-11-27T14:52:26.378Z,2.42
2022-11-27T14:54:54.016Z,2.47
2022-11-27T14:57:27.958Z,2.58
2022-11-27T15:00:13.717Z,2.17
2022-11-27T15:02:41.205Z,2.00
2022-11-27T15:05:09.531Z,2.45
2022-11-27T15:07:48.000Z,2.55
2022-11-27T15:10:43.733Z,2.08
2022-11-27T15:13:24.222Z,3.10
2022-11-27T15:16:03.093Z,2.67
2022-11-27T15:18:35.493Z,2.28
2022-11-27T15:21:09.189Z,3.30
2022-11-27T15:23:42.661Z,2.78
2022-11-27T15:26:22.471Z,2.80
2022-11-27T15:28:57.870Z,3.55
2022-11-27T15:31:31.368Z,3.30
2022-11-27T15:34:07.861Z,3.10
2022-11-27T15:36:42.856Z,3.28
2022-11-27T15:39:18.911Z,2.75
2022-11-27T15:41:53.184Z,2.60
2022-11-27T15:44:26.419Z,1.55
2022-11-27T15:46:56.113Z,3.35
2022-11-27T15:49:29.372Z,2.45
2022-11-27T15:52:02.335Z,2.00
2022-11-27T15:54:31.816Z,2.88
2022-11-27T15:56:58.952Z,2.08
2022-11-27T15:59:31.973Z,2.80
2022-11-27T16:02:00.249Z,2.65
2022-11-27T16:04:33.470Z,3.30
2022-11-27T16:07:00.809Z,3.17
2022-11-27T16:09:27.869Z,2.58
2022-11-27T16:11:57.410Z,2.83
2022-11-27T16:14:24.724Z,2.42
2022-11-27T16:16:51.859Z,3.55
2022-11-27T16:19:24.014Z,2.30
2022-11-27T16:21:54.366Z,2.00
2022-11-27T16:24:25.174Z,1.42
2022-11-27T16:26:58.038Z,2.42
2022-11-27T16:29:28.873Z,2.80
2022-11-27T16:32:02.014Z,2.85
2022-11-27T16:34:32.431Z,2.47
2022-11-27T16:37:05.984Z,1.90
2022-11-27T16:39:36.548Z,3.20
2022-11-27T16:42:07.218Z,1.67
2022-11-27T16:44:34.598Z,2.25
2022-11-27T16:47:04.590Z,2.20
2022-11-27T16:49:38.338Z,1.67
2022-11-27T16:52:10.309Z,1.95
2022-11-27T16:54:40.914Z,2.08
2022-11-27T16:57:11.684Z,1.55
2022-11-27T16:59:42.930Z,2.08
2022-11-27T17:02:14.580Z,1.63
2022-11-27T17:04:45.879Z,1.40
2022-11-27T17:07:17.014Z,2.78
2022-11-27T17:09:49.009Z,2.50
2022-11-27T17:12:19.098Z,2.13
2022-11-27T17:14:51.072Z,2.78
2022-11-27T17:17:18.331Z,1.00
2022-11-27T17:19:45.361Z,2.08
2022-11-27T17:22:18.528Z,3.08
2022-11-27T17:24:48.083Z,1.80
2022-11-27T17:27:18.714Z,1.00
2022-11-27T17:29:48.539Z,2.42
2022-11-27T17:32:18.520Z,2.35
2022-11-27T17:34:48.698Z,2.72
2022-11-27T17:37:20.119Z,2.78
2022-11-27T17:39:48.289Z,2.33
2022-11-27T17:42:22.683Z,2.35
2022-11-27T17:44:56.210Z,2.58
2022-11-27T17:47:28.856Z,3.03
2022-11-27T17:49:56.354Z,2.88
2022-11-27T17:52:26.514Z,1.83
2022-11-27T17:54:56.793Z,2.80
2022-11-27T17:57:29.654Z,2.88
2022-11-27T17:59:56.805Z,2.50
2022-11-27T18:02:27.222Z,2.80
2022-11-27T18:04:56.724Z,2.58
2022-11-27T18:07:23.944Z,2.78
2022-11-27T18:09:57.058Z,3.03
2022-11-27T18:12:24.961Z,2.97
2022-11-27T18:14:56.516Z,3.63
2022-11-27T18:17:26.645Z,2.47
2022-11-27T18:20:01.846Z,3.10
2022-11-27T18:22:47.282Z,3.92
2022-11-27T18:25:17.213Z,3.03
2022-11-27T18:27:50.360Z,2.88
2022-11-27T18:30:21.699Z,3.47
2022-11-27T18:32:50.489Z,2.90
2022-11-27T18:35:19.244Z,4.05
2022-11-27T18:37:46.198Z,3.35
2022-11-27T18:40:13.869Z,3.50
2022-11-27T18:45:45.932Z,2.97
2022-11-27T18:48:15.550Z,2.15
2022-11-27T18:50:45.090Z,2.60
2022-11-27T18:53:20.408Z,2.67
2022-11-27T18:55:52.895Z,3.72
2022-11-27T18:58:20.407Z,3.60
2022-11-27T19:00:50.699Z,3.80
2022-11-27T19:03:19.008Z,2.15
2022-11-27T19:05:49.123Z,3.50
2022-11-27T19:08:22.051Z,4.00
2022-11-27T19:10:50.767Z,3.25
2022-11-27T19:13:17.782Z,3.47
2022-11-27T19:15:47.634Z,3.42
2022-11-27T19:18:14.828Z,4.55
2022-11-27T19:20:45.181Z,3.38
2022-11-27T19:23:16.063Z,3.08
2022-11-27T19:25:47.046Z,2.78
2022-11-27T19:28:17.503Z,4.47
2022-11-27T19:30:48.155Z,3.85
2022-11-27T19:33:19.758Z,4.88
2022-11-27T19:35:46.894Z,4.18
2022-11-27T19:38:14.030Z,1.13
2022-11-27T19:40:44.036Z,1.83
2022-11-27T19:43:12.518Z,6.65
2022-11-27T19:45:41.951Z,5.03
2022-11-27T19:48:12.402Z,5.00
2022-11-27T19:50:40.894Z,4.30
2022-11-27T19:53:18.695Z,3.83
2022-11-27T19:55:57.892Z,4.22
2022-11-27T19:58:28.726Z,3.38
2022-11-27T20:01:01.744Z,4.57
2022-11-27T20:03:31.482Z,3.92
2022-11-27T20:06:20.881Z,1.85
2022-11-27T20:08:53.032Z,4.35
2022-11-27T20:11:31.167Z,3.25
2022-11-27T20:14:01.910Z,1.30
2022-11-27T20:16:32.057Z,5.57
2022-11-27T20:19:02.349Z,4.28
2022-11-27T20:21:58.123Z,2.83
2022-11-27T20:24:28.304Z,4.40
2022-11-27T20:27:00.798Z,3.70
2022-11-27T20:29:31.698Z,4.65
2022-11-27T20:32:03.823Z,3.33
2022-11-27T20:34:33.483Z,4.40
2022-11-27T20:37:20.589Z,3.35
2022-11-27T20:39:50.808Z,3.85
2022-11-27T20:42:21.325Z,3.65
2022-11-27T20:44:49.152Z,4.47
2022-11-27T20:47:19.636Z,3.47
2022-11-27T20:49:46.918Z,3.17
2022-11-27T20:52:17.125Z,3.83
2022-11-27T20:54:47.651Z,4.20
2022-11-27T20:57:14.913Z,3.05
2022-11-27T20:59:45.160Z,3.10
2022-11-27T21:02:18.777Z,3.00
2022-11-27T21:04:50.287Z,3.75
2022-11-27T21:07:20.904Z,4.20
2022-11-27T21:09:53.577Z,3.42
2022-11-27T21:12:30.978Z,2.67
2022-11-27T21:15:01.502Z,3.10
2022-11-27T21:17:31.109Z,3.35
2022-11-27T21:19:58.883Z,3.08
2022-11-27T21:22:32.099Z,3.58
2022-11-27T21:25:06.402Z,3.83
2022-11-27T21:27:40.533Z,3.58
2022-11-27T21:30:07.700Z,4.05
2022-11-27T21:32:38.207Z,5.30
2022-11-27T21:35:09.732Z,3.08
2022-11-27T21:37:40.564Z,2.22
2022-11-27T21:40:26.416Z,3.60
2022-11-27T21:42:56.702Z,4.38
2022-11-27T21:45:24.936Z,2.75
2022-11-27T21:47:52.450Z,2.40
2022-11-27T21:50:22.846Z,3.63
2022-11-27T21:52:55.752Z,1.92
2022-11-27T21:55:28.144Z,2.45
2022-11-27T21:57:55.022Z,3.20
2022-11-27T22:00:28.838Z,4.07
2022-11-27T22:02:59.886Z,3.28
2022-11-27T22:05:29.408Z,2.58
2022-11-27T22:07:59.926Z,4.50
2022-11-27T22:10:30.507Z,4.05
2022-11-27T22:12:57.579Z,3.53
2022-11-27T22:15:30.178Z,2.40
2022-11-27T22:18:02.451Z,4.72
2022-11-27T22:20:32.963Z,3.53
2022-11-27T22:23:01.621Z,3.78
2022-11-27T22:25:28.723Z,3.00
2022-11-27T22:27:59.016Z,3.15
2022-11-27T22:30:29.904Z,4.13
2022-11-27T22:32:59.282Z,3.10
2022-11-27T22:35:29.735Z,2.22
2022-11-27T22:38:00.301Z,3.50
2022-11-27T22:40:30.412Z,1.58
2022-11-27T22:42:57.819Z,4.85
2022-11-27T22:45:27.056Z,1.98
2022-11-27T22:47:58.685Z,4.10
2022-11-27T22:50:31.733Z,4.80
2022-11-27T22:53:01.977Z,4.03
2022-11-27T22:55:34.286Z,4.13
2022-11-27T22:58:01.105Z,4.03
2022-11-27T23:00:29.055Z,5.05
2022-11-27T23:02:59.462Z,4.60
2022-11-27T23:05:29.475Z,2.05
2022-11-27T23:07:58.702Z,4.10
2022-11-27T23:10:31.086Z,4.47
2022-11-27T23:13:00.995Z,3.25
2022-11-27T23:15:31.107Z,2.10
2022-11-27T23:17:58.413Z,4.05
2022-11-27T23:20:35.261Z,2.95
2022-11-27T23:23:08.419Z,4.30
2022-11-27T23:25:37.853Z,4.18
2022-11-27T23:28:05.458Z,5.00
2022-11-27T23:30:36.095Z,4.15
2022-11-27T23:33:04.741Z,2.50
2022-11-27T23:35:34.893Z,4.03
2022-11-27T23:38:05.854Z,2.47
2022-11-27T23:40:33.331Z,3.45
2022-11-27T23:43:00.180Z,4.50
2022-11-27T23:45:33.006Z,4.30
2022-11-27T23:48:12.459Z,4.25
2022-11-27T23:50:43.469Z,3.20
2022-11-27T23:53:13.226Z,3.72
2022-11-27T23:55:45.755Z,2.95
2022-11-27T23:58:18.369Z,3.42
